Time;durP1;ratioP1;P1;durP2;ratioP2;P2;SDS_P1;SDS_P2;PMS_P1;PMS_P2;Temp;Humidity;BMP_temperature;BMP_pressure;BME280_temperature;BME280_humidity;BME280_pressure;Samples;Min_cycle;Max_cycle;Signal;HPM_P1;HPM_P2
2022/07/13 00:01:33;;;;;;;3.70;3.40;;;23.50;98.20;;;;;;5104761;28;20027;-33
2022/07/13 00:03:59;;;;;;;3.90;3.55;;;23.40;98.30;;;;;;5105544;28;20032;-34
2022/07/13 00:06:25;;;;;;;3.80;3.47;;;23.40;98.60;;;;;;5104191;28;20012;-34
2022/07/13 00:08:50;;;;;;;3.97;3.67;;;23.40;98.80;;;;;;5105433;28;20035;-36
2022/07/13 00:11:16;;;;;;;4.32;3.92;;;23.30;99.00;;;;;;5105380;28;20108;-34
2022/07/13 00:13:41;;;;;;;4.43;4.03;;;23.30;99.20;;;;;;5105471;28;20506;-34
2022/07/13 00:16:07;;;;;;;4.53;3.47;;;23.30;99.40;;;;;;5108616;28;20042;-34
2022/07/13 00:18:32;;;;;;;3.90;3.58;;;23.30;99.50;;;;;;5108880;28;20088;-34
2022/07/13 00:20:58;;;;;;;4.47;4.07;;;23.20;99.60;;;;;;5109612;28;20102;-35
2022/07/13 00:23:24;;;;;;;3.85;3.55;;;23.20;99.70;;;;;;5107981;28;20089;-35
2022/07/13 00:25:49;;;;;;;4.30;3.95;;;23.20;99.80;;;;;;5109424;28;20031;-35
2022/07/13 00:28:16;;;;;;;4.88;4.22;;;23.20;99.90;;;;;;5109094;28;20027;-36
2022/07/13 00:30:42;;;;;;;3.97;3.67;;;23.10;99.90;;;;;;5108122;28;20047;-36
2022/07/13 00:33:07;;;;;;;4.35;4.05;;;23.10;99.90;;;;;;5110132;28;20087;-36
2022/07/13 00:35:33;;;;;;;4.07;3.78;;;23.10;99.90;;;;;;5107950;28;20051;-36
2022/07/13 00:37:59;;;;;;;4.13;3.63;;;23.10;99.90;;;;;;5109198;28;20429;-35
2022/07/13 00:40:26;;;;;;;4.28;3.88;;;23.10;99.90;;;;;;5108687;28;20480;-36
2022/07/13 00:42:52;;;;;;;5.40;3.58;;;23.10;99.90;;;;;;5107960;28;20019;-36
2022/07/13 00:45:18;;;;;;;3.78;3.47;;;23.10;99.90;;;;;;5108996;28;20015;-35
2022/07/13 00:47:47;;;;;;;3.80;3.50;;;23.10;99.90;;;;;;5108840;28;20032;-36
2022/07/13 00:50:12;;;;;;;4.38;3.95;;;23.10;99.90;;;;;;5109126;28;20024;-36
2022/07/13 00:52:40;;;;;;;3.92;3.63;;;23.10;99.90;;;;;;5108612;28;20417;-35
2022/07/13 00:55:07;;;;;;;3.80;3.50;;;23.00;99.90;;;;;;5108721;28;20027;-36
2022/07/13 00:57:35;;;;;;;4.13;3.83;;;23.00;99.90;;;;;;5107947;28;20489;-36
2022/07/13 01:00:04;;;;;;;4.80;4.40;;;23.00;99.90;;;;;;5109357;28;20031;-35
2022/07/13 01:02:30;;;;;;;4.75;4.22;;;23.00;99.90;;;;;;5108354;28;20027;-35
2022/07/13 01:04:55;;;;;;;5.32;4.22;;;23.00;99.90;;;;;;5108235;28;20020;-35
2022/07/13 01:07:21;;;;;;;5.38;4.20;;;23.00;99.90;;;;;;5107645;28;20075;-36
2022/07/13 01:09:47;;;;;;;4.55;4.15;;;23.00;99.90;;;;;;5108267;28;20382;-35
2022/07/13 01:12:12;;;;;;;5.40;4.22;;;23.00;99.90;;;;;;5107448;28;20123;-36
2022/07/13 01:14:39;;;;;;;4.78;4.07;;;23.00;99.90;;;;;;5109045;28;20459;-35
2022/07/13 01:17:05;;;;;;;4.03;3.72;;;23.00;99.90;;;;;;5109012;28;20023;-33
2022/07/13 01:19:34;;;;;;;5.05;3.70;;;23.00;99.90;;;;;;5107039;28;20031;-35
2022/07/13 01:22:02;;;;;;;4.15;3.80;;;23.00;99.90;;;;;;5108674;28;20040;-36
2022/07/13 01:24:29;;;;;;;4.00;3.70;;;23.00;99.90;;;;;;5108159;28;20022;-35
2022/07/13 01:26:55;;;;;;;3.70;3.40;;;23.00;99.90;;;;;;5107592;28;20032;-35
2022/07/13 01:29:21;;;;;;;4.10;3.80;;;23.10;99.90;;;;;;5108393;28;20027;-35
2022/07/13 01:31:46;;;;;;;4.13;3.75;;;23.00;99.90;;;;;;5106519;28;20065;-34
2022/07/13 01:34:12;;;;;;;4.10;3.80;;;23.00;99.90;;;;;;5108460;28;20106;-34
2022/07/13 01:36:40;;;;;;;3.70;3.40;;;23.00;99.90;;;;;;5107890;28;20378;-35
2022/07/13 01:39:06;;;;;;;4.10;3.70;;;23.00;99.90;;;;;;5107220;28;20101;-36
2022/07/13 01:41:31;;;;;;;3.47;3.17;;;23.00;99.90;;;;;;5107907;28;20407;-35
2022/07/13 01:43:58;;;;;;;4.18;3.78;;;23.00;99.90;;;;;;5107646;28;20336;-35
2022/07/13 01:46:24;;;;;;;4.20;3.80;;;23.00;99.90;;;;;;5106884;28;20031;-37
2022/07/13 01:48:51;;;;;;;6.03;3.75;;;23.00;99.90;;;;;;5108373;28;20546;-33
2022/07/13 01:51:16;;;;;;;3.65;3.35;;;23.00;99.90;;;;;;5107466;28;20031;-36
2022/07/13 01:53:42;;;;;;;5.03;3.47;;;23.00;99.90;;;;;;5106784;28;20027;-35
2022/07/13 01:56:07;;;;;;;3.60;3.30;;;22.90;99.90;;;;;;5107866;28;20027;-35
2022/07/13 01:58:33;;;;;;;3.30;3.10;;;23.00;99.90;;;;;;5107129;28;20062;-35
2022/07/13 02:00:59;;;;;;;3.53;3.22;;;23.00;99.90;;;;;;5106813;28;20023;-34
2022/07/13 02:03:25;;;;;;;3.08;2.88;;;23.00;99.90;;;;;;5107393;28;20483;-35
2022/07/13 02:05:51;;;;;;;3.40;3.10;;;22.90;99.90;;;;;;5107476;28;20037;-36
2022/07/13 02:08:17;;;;;;;3.17;2.88;;;23.00;99.90;;;;;;5106017;28;20024;-35
2022/07/13 02:10:43;;;;;;;3.78;2.92;;;23.00;99.90;;;;;;5103638;28;20478;-39
2022/07/13 02:13:13;;;;;;;3.42;3.20;;;23.00;99.90;;;;;;5107454;28;20031;-36
2022/07/13 02:15:40;;;;;;;3.63;3.33;;;23.00;99.90;;;;;;5106304;28;20026;-35
2022/07/13 02:18:06;;;;;;;3.40;3.10;;;23.00;99.90;;;;;;5108030;28;20033;-34
2022/07/13 02:20:32;;;;;;;3.58;3.28;;;23.00;99.90;;;;;;5106565;28;20524;-34
2022/07/13 02:22:58;;;;;;;3.20;2.90;;;23.00;99.90;;;;;;5106555;28;20409;-34
2022/07/13 02:25:24;;;;;;;2.63;2.42;;;23.00;99.90;;;;;;5106911;28;20028;-35
2022/07/13 02:27:49;;;;;;;2.88;2.67;;;22.90;99.90;;;;;;5107197;28;20031;-35
2022/07/13 02:30:15;;;;;;;2.78;2.50;;;23.00;99.90;;;;;;5105841;28;20054;-35
2022/07/13 02:32:43;;;;;;;2.90;2.70;;;23.00;99.90;;;;;;5106489;28;20539;-35
2022/07/13 02:35:10;;;;;;;2.85;2.65;;;23.00;99.90;;;;;;5106291;28;20034;-35
2022/07/13 02:37:37;;;;;;;2.92;2.33;;;23.00;99.90;;;;;;5105742;28;20066;-37
2022/07/13 02:40:04;;;;;;;2.47;2.25;;;23.00;99.90;;;;;;5106977;28;20081;-36
2022/07/13 02:42:30;;;;;;;2.53;2.33;;;23.00;99.90;;;;;;5105930;28;20042;-35
2022/07/13 02:44:55;;;;;;;2.42;2.10;;;23.00;99.90;;;;;;5106539;28;20023;-35
2022/07/13 02:47:21;;;;;;;2.67;2.47;;;22.90;99.80;;;;;;5106908;28;20077;-35
2022/07/13 02:49:46;;;;;;;2.55;2.35;;;23.00;99.80;;;;;;5105781;28;20027;-42
2022/07/13 02:52:12;;;;;;;2.75;2.55;;;23.00;99.80;;;;;;5106675;28;20082;-35
2022/07/13 02:54:38;;;;;;;2.47;2.30;;;22.90;99.90;;;;;;5106435;28;20031;-35
2022/07/13 02:57:05;;;;;;;2.30;2.15;;;22.90;99.90;;;;;;5105379;28;20023;-34
2022/07/13 02:59:35;;;;;;;2.60;2.40;;;22.90;99.90;;;;;;5106369;28;20487;-35
2022/07/13 03:02:00;;;;;;;2.63;2.42;;;22.90;99.80;;;;;;5106400;28;20030;-35
2022/07/13 03:04:26;;;;;;;2.50;2.30;;;22.90;99.80;;;;;;5105721;28;20111;-34
2022/07/13 03:06:52;;;;;;;2.50;2.28;;;22.90;99.80;;;;;;5105569;28;20020;-35
2022/07/13 03:09:17;;;;;;;2.33;2.13;;;22.90;99.70;;;;;;5095691;28;20039;-34
2022/07/13 03:11:43;;;;;;;2.95;2.63;;;22.90;99.60;;;;;;5101515;28;20032;-33
2022/07/13 03:14:08;;;;;;;2.70;2.50;;;22.90;99.50;;;;;;5106949;28;20027;-34
2022/07/13 03:16:34;;;;;;;2.60;2.40;;;22.90;99.40;;;;;;5106038;28;20467;-35
2022/07/13 03:19:00;;;;;;;2.10;2.00;;;22.90;99.40;;;;;;5106079;28;20256;-35
2022/07/13 03:21:28;;;;;;;2.15;1.95;;;22.90;99.30;;;;;;5105122;28;20047;-35
2022/07/13 03:23:54;;;;;;;2.35;2.08;;;22.90;99.20;;;;;;5106930;28;20028;-35
2022/07/13 03:26:20;;;;;;;2.40;2.20;;;22.90;99.10;;;;;;5105312;28;20016;-35
2022/07/13 03:28:46;;;;;;;2.25;2.05;;;22.90;99.10;;;;;;5106090;28;20030;-35
2022/07/13 03:31:11;;;;;;;2.25;2.05;;;22.90;99.00;;;;;;5106384;28;20024;-36
2022/07/13 03:33:37;;;;;;;2.63;2.28;;;22.90;99.00;;;;;;5104260;28;20482;-34
2022/07/13 03:36:03;;;;;;;3.15;2.20;;;22.90;98.90;;;;;;5105933;28;20028;-36
2022/07/13 03:38:29;;;;;;;2.95;2.65;;;22.90;98.90;;;;;;5103622;28;20028;-35
2022/07/13 03:40:54;;;;;;;2.15;1.95;;;22.90;98.90;;;;;;5106069;28;20035;-35
2022/07/13 03:43:20;;;;;;;4.10;2.20;;;22.90;98.90;;;;;;5105609;28;20781;-35
2022/07/13 03:45:45;;;;;;;3.28;2.00;;;22.90;98.90;;;;;;5104639;28;20039;-34
2022/07/13 03:48:13;;;;;;;2.45;2.25;;;22.90;98.90;;;;;;5106232;28;20031;-35
2022/07/13 03:50:39;;;;;;;2.30;2.10;;;22.90;98.90;;;;;;5109501;28;20394;-38
2022/07/13 03:53:05;;;;;;;4.32;2.40;;;22.90;98.90;;;;;;5109117;28;20494;-35
2022/07/13 03:55:30;;;;;;;2.28;2.08;;;22.90;98.80;;;;;;5109237;28;20058;-35
2022/07/13 03:57:56;;;;;;;2.17;1.98;;;22.90;98.70;;;;;;5109312;28;20150;-35
2022/07/13 04:00:22;;;;;;;2.75;2.20;;;22.90;98.70;;;;;;5108740;28;20065;-34
2022/07/13 04:02:48;;;;;;;2.28;2.08;;;22.90;98.60;;;;;;5109784;28;20396;-33
2022/07/13 04:05:13;;;;;;;2.13;1.98;;;22.90;98.60;;;;;;5109328;28;20011;-33
2022/07/13 04:07:39;;;;;;;2.45;2.08;;;22.90;98.60;;;;;;5109071;28;20338;-34
2022/07/13 04:10:05;;;;;;;1.90;1.80;;;22.90;98.50;;;;;;5109556;28;20386;-35
2022/07/13 04:12:31;;;;;;;3.25;1.95;;;22.90;98.50;;;;;;5108861;28;20432;-36
2022/07/13 04:14:56;;;;;;;2.30;2.10;;;23.00;98.50;;;;;;5109682;28;20023;-35
2022/07/13 04:17:22;;;;;;;1.98;1.80;;;23.00;98.40;;;;;;5109425;28;20035;-34
2022/07/13 04:19:47;;;;;;;2.35;1.80;;;23.00;98.40;;;;;;5109418;28;20015;-34
2022/07/13 04:22:13;;;;;;;2.10;2.00;;;23.00;98.40;;;;;;5108679;28;20074;-35
2022/07/13 04:24:38;;;;;;;2.53;2.00;;;23.00;98.70;;;;;;5108670;28;20467;-35
2022/07/13 04:27:04;;;;;;;2.00;1.90;;;23.00;98.50;;;;;;5109706;28;20046;-33
2022/07/13 04:29:29;;;;;;;2.13;2.00;;;23.00;98.50;;;;;;5108211;28;20157;-36
2022/07/13 04:31:55;;;;;;;2.30;1.80;;;23.00;98.50;;;;;;5109450;28;20039;-34
2022/07/13 04:34:20;;;;;;;2.00;1.80;;;23.00;98.40;;;;;;5108575;28;20081;-36
2022/07/13 04:36:46;;;;;;;1.98;1.88;;;23.00;98.40;;;;;;5108176;28;20545;-36
2022/07/13 04:39:13;;;;;;;2.08;1.98;;;23.00;98.40;;;;;;5108815;28;20015;-35
2022/07/13 04:41:39;;;;;;;2.65;2.08;;;23.00;98.40;;;;;;5108311;28;20015;-35
2022/07/13 04:44:04;;;;;;;2.28;2.08;;;23.00;98.50;;;;;;5108683;28;20506;-35
2022/07/13 04:46:30;;;;;;;3.70;2.17;;;23.00;98.50;;;;;;5107978;28;20027;-35
2022/07/13 04:48:56;;;;;;;3.50;2.35;;;23.00;98.50;;;;;;5107948;28;20558;-33
2022/07/13 04:51:21;;;;;;;3.60;2.30;;;23.00;98.50;;;;;;5108431;28;20035;-35
2022/07/13 04:53:46;;;;;;;2.38;1.98;;;23.00;98.50;;;;;;5108307;28;20039;-34
2022/07/13 04:56:12;;;;;;;2.13;1.90;;;23.00;98.40;;;;;;5108420;28;20035;-34
2022/07/13 04:58:38;;;;;;;2.08;1.98;;;23.10;98.40;;;;;;5108139;28;20035;-35
2022/07/13 05:01:07;;;;;;;2.03;1.92;;;23.10;98.40;;;;;;5107611;28;20019;-36
2022/07/13 05:03:33;;;;;;;3.22;2.05;;;23.20;98.60;;;;;;5107464;28;20030;-36
2022/07/13 05:06:00;;;;;;;2.05;1.85;;;23.20;98.30;;;;;;5108409;28;20055;-37
2022/07/13 05:08:26;;;;;;;4.00;3.63;;;23.30;98.30;;;;;;5107956;28;20049;-35
2022/07/13 05:10:53;;;;;;;3.60;3.30;;;23.30;98.30;;;;;;5107552;28;20516;-35
2022/07/13 05:13:19;;;;;;;3.53;3.22;;;23.30;98.30;;;;;;5108106;28;20028;-35
2022/07/13 05:15:45;;;;;;;2.78;2.58;;;23.30;98.30;;;;;;5107776;28;20023;-36
2022/07/13 05:18:11;;;;;;;3.67;2.80;;;23.20;98.30;;;;;;5108117;28;20030;-35
2022/07/13 05:20:37;;;;;;;2.53;2.33;;;23.40;98.40;;;;;;5107577;28;20016;-35
2022/07/13 05:23:03;;;;;;;3.05;2.50;;;23.30;98.40;;;;;;5107688;28;20055;-35
2022/07/13 05:25:29;;;;;;;3.53;2.50;;;23.30;98.40;;;;;;5107048;28;20438;-35
2022/07/13 05:27:54;;;;;;;2.97;2.75;;;23.40;98.40;;;;;;5108254;28;20024;-35
2022/07/13 05:30:20;;;;;;;3.60;2.55;;;23.40;98.40;;;;;;5107878;28;20664;-35
2022/07/13 05:32:45;;;;;;;2.75;2.55;;;23.40;98.50;;;;;;5107572;28;20096;-36
2022/07/13 05:35:11;;;;;;;2.75;2.55;;;23.50;98.40;;;;;;5107932;28;20025;-36
2022/07/13 05:37:37;;;;;;;2.70;2.50;;;23.40;98.50;;;;;;5107561;28;20031;-36
2022/07/13 05:40:03;;;;;;;3.00;2.70;;;23.40;98.50;;;;;;5108174;28;20020;-35
2022/07/13 05:42:29;;;;;;;4.32;3.10;;;23.40;98.60;;;;;;5107148;28;20122;-35
2022/07/13 05:44:55;;;;;;;3.20;2.75;;;23.40;98.60;;;;;;5112611;27;20665;-36
2022/07/13 05:47:20;;;;;;;3.60;3.30;;;23.40;98.60;;;;;;5106125;28;20036;-36
2022/07/13 05:49:46;;;;;;;3.88;3.40;;;23.40;98.60;;;;;;5105398;28;20020;-36
2022/07/13 05:52:11;;;;;;;3.95;3.58;;;23.50;98.70;;;;;;5105047;28;20041;-34
2022/07/13 05:54:37;;;;;;;5.13;3.63;;;23.50;98.70;;;;;;5106656;28;20158;-36
2022/07/13 05:57:03;;;;;;;4.18;3.80;;;23.50;98.70;;;;;;5106107;28;20023;-34
2022/07/13 05:59:28;;;;;;;5.35;3.55;;;23.60;98.60;;;;;;5104989;28;20099;-35
2022/07/13 06:01:54;;;;;;;4.85;3.85;;;23.60;98.60;;;;;;5106212;28;20016;-35
2022/07/13 06:04:20;;;;;;;5.35;4.75;;;23.60;98.50;;;;;;5106977;28;20028;-35
2022/07/13 06:06:49;;;;;;;4.68;4.25;;;23.70;98.60;;;;;;5105261;28;20088;-36
2022/07/13 06:09:14;;;;;;;4.82;4.43;;;23.70;98.60;;;;;;5106745;28;20427;-35
2022/07/13 06:11:40;;;;;;;5.30;4.22;;;23.70;98.60;;;;;;5104765;28;20027;-35
2022/07/13 06:14:06;;;;;;;4.95;4.07;;;23.70;98.60;;;;;;5106190;28;20016;-35
2022/07/13 06:16:32;;;;;;;3.78;3.47;;;23.80;98.70;;;;;;5105326;28;20479;-35
2022/07/13 06:18:57;;;;;;;4.03;3.67;;;23.80;98.70;;;;;;5106255;28;20128;-35
2022/07/13 06:21:23;;;;;;;7.00;4.57;;;23.80;98.70;;;;;;5105285;28;20117;-36
2022/07/13 06:23:48;;;;;;;5.95;4.47;;;23.90;98.70;;;;;;5105617;28;20524;-35
2022/07/13 06:26:14;;;;;;;5.25;4.32;;;23.90;98.70;;;;;;5105900;28;20107;-35
2022/07/13 06:28:39;;;;;;;5.15;4.60;;;24.00;98.70;;;;;;5104554;28;20107;-35
2022/07/13 06:31:05;;;;;;;6.75;4.80;;;24.10;98.60;;;;;;5105921;28;20042;-35
2022/07/13 06:33:30;;;;;;;4.32;3.60;;;24.10;98.60;;;;;;5105445;28;20039;-35
2022/07/13 06:35:56;;;;;;;5.82;4.32;;;24.10;98.60;;;;;;5104808;28;20034;-36
2022/07/13 06:38:21;;;;;;;4.38;3.97;;;24.10;98.70;;;;;;5105495;28;20034;-35
2022/07/13 06:40:47;;;;;;;4.32;3.85;;;24.10;98.70;;;;;;5105232;28;20031;-35
2022/07/13 06:43:14;;;;;;;5.15;4.43;;;24.20;98.70;;;;;;5105572;28;20031;-35
2022/07/13 06:45:39;;;;;;;5.05;4.55;;;24.20;98.50;;;;;;5106539;28;20409;-35
2022/07/13 06:48:05;;;;;;;4.68;4.18;;;24.30;98.40;;;;;;5104951;27;20074;-36
2022/07/13 06:50:31;;;;;;;4.05;3.75;;;24.30;98.40;;;;;;5103437;28;20344;-36
2022/07/13 06:52:57;;;;;;;4.85;4.35;;;24.40;98.30;;;;;;5106067;28;20038;-36
2022/07/13 06:55:22;;;;;;;4.72;4.32;;;24.40;98.30;;;;;;5105495;28;20477;-37
2022/07/13 06:57:48;;;;;;;4.90;4.40;;;24.40;98.30;;;;;;5105948;28;20039;-35
2022/07/13 07:00:14;;;;;;;4.75;4.07;;;24.40;98.20;;;;;;5105118;28;20030;-36
2022/07/13 07:02:39;;;;;;;5.50;4.90;;;24.50;98.40;;;;;;5105747;28;20117;-35
2022/07/13 07:05:11;;;;;;;4.75;4.10;;;24.60;98.00;;;;;;5105837;28;20016;-35
2022/07/13 07:07:38;;;;;;;4.72;4.20;;;24.60;97.90;;;;;;5105944;28;20043;-36
2022/07/13 07:10:04;;;;;;;4.88;4.47;;;24.60;97.70;;;;;;5104840;28;20141;-36
2022/07/13 07:12:30;;;;;;;3.92;3.53;;;24.60;97.70;;;;;;5104894;28;20104;-36
2022/07/13 07:14:56;;;;;;;5.85;4.03;;;24.60;97.70;;;;;;5106820;28;20051;-35
2022/07/13 07:17:21;;;;;;;3.83;3.47;;;24.60;97.70;;;;;;5105760;28;20055;-35
2022/07/13 07:19:47;;;;;;;3.65;3.35;;;24.60;97.60;;;;;;5104939;28;20030;-35
2022/07/13 07:22:13;;;;;;;4.30;3.90;;;24.70;97.60;;;;;;5105596;28;20147;-34
2022/07/13 07:24:40;;;;;;;4.97;3.90;;;24.80;97.50;;;;;;5104594;28;20024;-35
2022/07/13 07:27:07;;;;;;;4.05;3.65;;;24.90;97.40;;;;;;5105807;28;20027;-35
2022/07/13 07:29:34;;;;;;;4.05;3.13;;;24.90;97.40;;;;;;5104990;28;20027;-36
2022/07/13 07:32:01;;;;;;;3.38;3.08;;;25.00;97.20;;;;;;5105515;28;20039;-36
2022/07/13 07:34:27;;;;;;;3.60;3.30;;;25.20;97.10;;;;;;5105121;28;20058;-36
2022/07/13 07:36:53;;;;;;;4.10;3.22;;;25.30;96.90;;;;;;5105913;28;20059;-36
2022/07/13 07:39:18;;;;;;;3.42;3.13;;;25.40;96.80;;;;;;5104667;28;20114;-35
2022/07/13 07:41:44;;;;;;;3.50;3.20;;;25.50;96.80;;;;;;5105851;28;20012;-35
2022/07/13 07:44:10;;;;;;;3.90;2.97;;;25.60;96.60;;;;;;5105981;28;20455;-34
2022/07/13 07:46:35;;;;;;;6.35;3.92;;;25.70;96.60;;;;;;5104347;28;20058;-34
2022/07/13 07:49:03;;;;;;;3.30;3.00;;;25.80;96.40;;;;;;5105973;28;20019;-36
2022/07/13 07:51:29;;;;;;;4.28;2.78;;;25.80;96.10;;;;;;5104551;28;20057;-35
2022/07/13 07:53:55;;;;;;;3.78;3.42;;;25.90;96.10;;;;;;5105237;28;20032;-36
2022/07/13 07:56:20;;;;;;;3.95;3.30;;;25.90;95.80;;;;;;5105313;28;20089;-36
2022/07/13 07:58:46;;;;;;;3.50;2.83;;;25.80;95.70;;;;;;5104880;28;20383;-36
2022/07/13 08:01:12;;;;;;;4.40;3.60;;;25.80;95.80;;;;;;5105210;28;20122;-35
2022/07/13 08:03:38;;;;;;;3.38;2.80;;;25.80;95.50;;;;;;5104987;28;20028;-37
2022/07/13 08:06:03;;;;;;;3.40;2.70;;;25.70;95.50;;;;;;5104504;28;20074;-37
2022/07/13 08:08:29;;;;;;;3.97;3.03;;;25.70;95.60;;;;;;5105015;28;20045;-38
2022/07/13 08:10:55;;;;;;;4.53;3.10;;;25.70;95.70;;;;;;5105511;28;20065;-37
2022/07/13 08:13:20;;;;;;;3.22;2.75;;;25.70;95.70;;;;;;5104494;28;20042;-36
2022/07/13 08:15:46;;;;;;;2.88;2.67;;;25.70;95.80;;;;;;5105725;28;20110;-37
2022/07/13 08:18:11;;;;;;;2.55;2.35;;;25.60;95.80;;;;;;5106015;28;20038;-36
2022/07/13 08:20:37;;;;;;;4.30;2.78;;;25.50;95.80;;;;;;5104106;28;20475;-37
2022/07/13 08:23:50;;;;;;;4.32;3.15;;;25.50;96.00;;;;;;5105723;28;20065;-35
2022/07/13 08:25:48;;;;;;;2.95;2.33;;;25.50;95.90;;;;;;5105627;28;20032;-37
2022/07/13 08:28:13;;;;;;;3.55;2.65;;;25.40;96.10;;;;;;5104991;28;20432;-35
2022/07/13 08:30:41;;;;;;;3.30;2.60;;;25.40;96.20;;;;;;5104006;28;20031;-36
2022/07/13 08:33:06;;;;;;;4.65;3.47;;;25.40;96.30;;;;;;5105469;28;20110;-35
2022/07/13 08:38:35;;;;;;;3.63;3.33;;;25.40;96.20;;;;;;5108603;28;20042;-35
2022/07/13 08:41:01;;;;;;;4.13;3.72;;;25.50;96.20;;;;;;5106424;28;20100;-35
2022/07/13 08:43:27;;;;;;;6.03;3.90;;;25.60;95.70;;;;;;5108281;28;20028;-35
2022/07/13 08:45:53;;;;;;;5.28;3.92;;;25.50;95.70;;;;;;5108935;28;20039;-36
2022/07/13 08:48:25;;;;;;;3.75;3.45;;;25.50;95.70;;;;;;5107611;28;20015;-35
2022/07/13 08:50:52;;;;;;;4.45;3.45;;;25.50;95.80;;;;;;5088660;28;20103;-35
2022/07/13 08:53:17;;;;;;;3.20;2.90;;;25.50;95.90;;;;;;5102769;28;20046;-34
2022/07/13 08:55:44;;;;;;;4.60;3.35;;;25.50;95.90;;;;;;5107853;28;20031;-35
2022/07/13 08:58:11;;;;;;;3.35;3.05;;;25.50;95.70;;;;;;5108865;28;20108;-35
2022/07/13 09:00:36;;;;;;;4.00;2.70;;;25.60;95.70;;;;;;5107988;28;20046;-35
2022/07/13 09:03:02;;;;;;;3.03;2.63;;;25.70;95.70;;;;;;5107284;28;20027;-35
2022/07/13 09:05:31;;;;;;;3.70;2.97;;;25.70;95.60;;;;;;5107858;28;20405;-35
2022/07/13 09:08:10;;;;;;;3.38;2.67;;;25.80;95.60;;;;;;5108736;28;20110;-36
2022/07/13 09:10:53;;;;;;;3.03;2.70;;;25.90;95.70;;;;;;5107107;28;20011;-35
2022/07/13 09:13:44;;;;;;;2.95;2.63;;;25.90;95.80;;;;;;5107555;28;20055;-36
2022/07/13 09:16:16;;;;;;;2.60;2.20;;;26.00;95.90;;;;;;5107605;28;20042;-36
2022/07/13 09:18:43;;;;;;;2.50;2.30;;;26.00;95.60;;;;;;5108282;28;20019;-35
2022/07/13 09:21:09;;;;;;;2.50;2.30;;;26.10;95.60;;;;;;5108039;28;20024;-35
2022/07/13 09:23:34;;;;;;;2.78;2.50;;;26.10;95.60;;;;;;5107352;28;20507;-35
2022/07/13 09:26:00;;;;;;;2.80;2.60;;;26.10;95.70;;;;;;5108051;28;20019;-36
2022/07/13 09:28:25;;;;;;;2.95;2.58;;;26.20;95.80;;;;;;5106768;28;20691;-36
2022/07/13 09:30:51;;;;;;;3.22;2.58;;;26.20;95.80;;;;;;5108092;28;20641;-37
2022/07/13 09:33:33;;;;;;;4.07;2.70;;;26.20;95.80;;;;;;5107692;28;20031;-35
2022/07/13 09:36:07;;;;;;;;;;;26.30;95.90;;;;;;5108237;28;20297;-36
2022/07/13 09:38:41;;;;;;;3.83;3.08;;;26.30;95.90;;;;;;5105431;28;19907;-36
2022/07/13 09:41:27;;;;;;;2.75;2.53;;;26.20;95.80;;;;;;5107892;28;20019;-35
2022/07/13 09:46:55;;;;;;;4.00;3.30;;;26.30;95.80;;;;;;5098891;28;20509;-35
2022/07/13 09:49:33;;;;;;;3.35;2.97;;;26.30;95.30;;;;;;5107197;28;20050;-34
2022/07/13 09:52:00;;;;;;;3.08;2.78;;;26.30;95.40;;;;;;5106416;28;20032;-35
2022/07/13 09:54:28;;;;;;;2.70;2.50;;;26.40;95.50;;;;;;5106647;28;20030;-36
2022/07/13 09:57:00;;;;;;;2.83;2.55;;;26.40;95.80;;;;;;5108422;28;20189;-35
2022/07/13 09:59:28;;;;;;;3.28;2.40;;;26.50;95.60;;;;;;5105929;28;20050;-34
2022/07/13 10:01:54;;;;;;;4.05;2.47;;;26.50;95.50;;;;;;5096381;28;20053;-34
2022/07/13 10:04:21;;;;;;;3.15;2.63;;;26.50;95.30;;;;;;5107320;28;20356;-35
2022/07/13 10:06:47;;;;;;;2.97;2.50;;;26.60;95.20;;;;;;5106390;28;20038;-35
2022/07/13 10:09:13;;;;;;;3.20;2.60;;;26.70;95.20;;;;;;5107283;28;20016;-35
2022/07/13 10:11:39;;;;;;;2.85;2.40;;;26.70;95.30;;;;;;5107104;28;20027;-34
2022/07/13 10:14:04;;;;;;;4.38;2.83;;;26.70;94.90;;;;;;5090235;28;20734;-35
2022/07/13 10:16:33;;;;;;;7.05;2.85;;;26.80;94.80;;;;;;5105046;28;20419;-36
2022/07/13 10:19:03;;;;;;;4.60;3.13;;;26.80;94.70;;;;;;5108104;28;20026;-36
2022/07/13 10:22:00;;;;;;;2.55;2.35;;;27.00;94.70;;;;;;5105979;28;20023;-36
2022/07/13 10:24:28;;;;;;;2.88;2.22;;;27.10;94.40;;;;;;5086393;28;20109;-36
2022/07/13 10:27:26;;;;;;;2.65;2.45;;;27.10;94.10;;;;;;5105074;28;20448;-36
2022/07/13 10:29:57;;;;;;;3.50;2.35;;;27.10;93.90;;;;;;5106416;28;20485;-36
2022/07/13 10:32:28;;;;;;;2.30;2.10;;;27.20;93.80;;;;;;5104025;28;20031;-35
2022/07/13 10:35:01;;;;;;;2.15;1.92;;;27.30;93.70;;;;;;5104694;28;20264;-35
2022/07/13 10:37:28;;;;;;;3.63;2.25;;;27.30;93.70;;;;;;5105071;28;20501;-35
2022/07/13 10:40:14;;;;;;;2.45;2.00;;;27.40;93.60;;;;;;5105437;28;20030;-34
2022/07/13 10:42:54;;;;;;;3.47;2.20;;;27.40;93.60;;;;;;5103140;28;20031;-35
2022/07/13 10:45:42;;;;;;;3.72;2.60;;;27.50;93.40;;;;;;5105685;28;20110;-35
2022/07/13 10:48:17;;;;;;;3.50;2.38;;;27.50;93.10;;;;;;5102855;28;20154;-35
2022/07/13 10:50:48;;;;;;;2.70;2.25;;;27.70;93.20;;;;;;5105236;28;20146;-36
2022/07/13 10:53:18;;;;;;;4.18;2.50;;;27.80;93.10;;;;;;5102101;28;20080;-36
2022/07/13 10:55:51;;;;;;;2.00;1.90;;;27.90;92.90;;;;;;5104819;28;20028;-36
2022/07/13 10:58:32;;;;;;;3.33;2.50;;;27.90;92.80;;;;;;5104768;28;20054;-36
2022/07/13 11:01:00;;;;;;;2.70;2.50;;;28.00;92.70;;;;;;5105669;28;20479;-36
2022/07/13 11:03:43;;;;;;;3.13;2.83;;;28.00;92.40;;;;;;5104847;28;20084;-34
2022/07/13 11:06:14;;;;;;;2.20;2.00;;;28.00;92.20;;;;;;5106147;28;20026;-35
2022/07/13 11:08:40;;;;;;;3.22;1.90;;;28.00;92.30;;;;;;5101470;28;20114;-34
2022/07/13 11:11:17;;;;;;;2.60;2.03;;;28.00;92.40;;;;;;5106321;28;20045;-35
2022/07/13 11:13:44;;;;;;;2.33;1.90;;;28.10;92.50;;;;;;5104531;28;20031;-34
2022/07/13 11:16:10;;;;;;;3.13;2.45;;;28.20;92.50;;;;;;5105579;28;20034;-36
2022/07/13 11:18:41;;;;;;;2.55;1.92;;;28.30;91.80;;;;;;5104965;28;20020;-35
2022/07/13 11:21:23;;;;;;;2.38;2.15;;;28.30;92.00;;;;;;5106188;28;20051;-35
2022/07/13 11:26:51;;;;;;;2.13;1.95;;;28.20;90.00;;;;;;5106385;28;20039;-34
2022/07/13 11:29:45;;;;;;;2.55;1.92;;;28.10;88.40;;;;;;5105225;28;20031;-34
2022/07/13 11:32:11;;;;;;;2.05;1.73;;;28.00;86.30;;;;;;5105716;28;20119;-35
2022/07/13 11:34:37;;;;;;;1.42;1.30;;;27.90;87.20;;;;;;5105183;28;20139;-35
2022/07/13 11:37:04;;;;;;;2.95;1.60;;;27.90;85.90;;;;;;5105288;28;20038;-35
2022/07/13 11:39:34;;;;;;;1.55;1.45;;;27.90;85.80;;;;;;5105426;28;20446;-34
2022/07/13 11:42:02;;;;;;;1.33;1.23;;;27.90;84.20;;;;;;5106174;28;20024;-35
2022/07/13 11:44:30;;;;;;;2.00;1.40;;;27.90;81.30;;;;;;5104240;28;20114;-35
2022/07/13 11:47:00;;;;;;;1.48;1.38;;;27.90;79.80;;;;;;5106128;28;20077;-36
2022/07/13 11:49:27;;;;;;;1.73;1.40;;;27.90;79.80;;;;;;5105155;28;20034;-35
2022/07/13 11:51:52;;;;;;;1.80;1.60;;;27.90;79.50;;;;;;5105426;28;20039;-36
2022/07/13 11:54:23;;;;;;;2.03;1.38;;;27.80;78.70;;;;;;5105246;28;20023;-36
2022/07/13 11:56:53;;;;;;;1.95;1.45;;;27.80;79.70;;;;;;5105825;28;20108;-36
2022/07/13 11:59:38;;;;;;;1.70;1.13;;;27.70;79.50;;;;;;5104438;28;20130;-37
2022/07/13 12:02:08;;;;;;;2.53;1.30;;;27.70;75.80;;;;;;5105945;28;20043;-36
2022/07/13 12:04:44;;;;;;;2.08;1.02;;;27.70;76.90;;;;;;5105008;28;20020;-35
2022/07/13 12:07:14;;;;;;;3.20;1.30;;;27.70;74.60;;;;;;5106018;28;20164;-36
2022/07/13 12:09:49;;;;;;;2.55;1.38;;;27.70;75.80;;;;;;5105233;28;20031;-36
2022/07/13 12:12:16;;;;;;;1.75;1.20;;;27.80;77.20;;;;;;5108825;28;20042;-36
2022/07/13 12:14:43;;;;;;;1.20;1.10;;;27.80;77.20;;;;;;5109174;28;20068;-36
2022/07/13 12:17:08;;;;;;;1.50;1.40;;;27.80;77.50;;;;;;5109217;28;20135;-37
2022/07/13 12:19:34;;;;;;;1.92;1.13;;;27.80;77.80;;;;;;5107643;28;20138;-36
2022/07/13 12:22:00;;;;;;;1.50;1.10;;;27.90;77.60;;;;;;5109877;28;20039;-36
2022/07/13 12:24:29;;;;;;;1.42;1.10;;;27.90;77.30;;;;;;5108422;28;20105;-35
2022/07/13 12:26:55;;;;;;;1.35;1.25;;;28.00;76.60;;;;;;5108209;28;20024;-35
2022/07/13 12:29:34;;;;;;;1.23;1.13;;;28.10;77.20;;;;;;5108496;28;20100;-35
2022/07/13 12:32:02;;;;;;;2.58;1.35;;;28.10;77.60;;;;;;5098741;28;20031;-36
2022/07/13 12:34:28;;;;;;;2.00;1.48;;;28.20;77.20;;;;;;5107410;28;20030;-35
2022/07/13 12:36:54;;;;;;;2.60;1.23;;;28.30;76.30;;;;;;5109258;28;20020;-37
2022/07/13 12:39:40;;;;;;;1.58;1.45;;;28.30;76.80;;;;;;5108132;28;20378;-37
2022/07/13 12:42:07;;;;;;;2.25;1.45;;;28.30;76.30;;;;;;5107175;28;20451;-36
2022/07/13 12:44:32;;;;;;;1.73;1.30;;;28.30;76.10;;;;;;5107879;28;20670;-36
2022/07/13 12:47:02;;;;;;;2.08;1.30;;;28.30;76.10;;;;;;5107599;28;20059;-36
2022/07/13 12:49:38;;;;;;;1.98;1.60;;;28.30;76.50;;;;;;5107875;28;20504;-35
2022/07/13 12:52:05;;;;;;;2.55;1.60;;;28.30;76.60;;;;;;5108110;28;20491;-35
2022/07/13 12:54:48;;;;;;;2.10;1.38;;;28.20;76.30;;;;;;5107873;28;20442;-34
2022/07/13 12:57:15;;;;;;;2.17;1.52;;;28.30;76.70;;;;;;5108144;28;20077;-36
2022/07/13 13:00:00;;;;;;;2.13;1.65;;;28.40;77.00;;;;;;5106882;28;20019;-36